sensor_id;sensor_type;location;lat;lon;timestamp;P1;durP1;ratioP1;P2;durP2;ratioP2
11596;SDS011;5854;48.072;16.286;2023-09-12T00:01:20;3.28;;;2.63;;
11596;SDS011;5854;48.072;16.286;2023-09-12T00:03:47;3.40;;;3.08;;
11596;SDS011;5854;48.072;16.286;2023-09-12T00:06:16;4.13;;;3.20;;
11596;SDS011;5854;48.072;16.286;2023-09-12T00:08:44;3.35;;;3.15;;
11596;SDS011;5854;48.072;16.286;2023-09-12T00:11:11;3.40;;;3.10;;
11596;SDS011;5854;48.072;16.286;2023-09-12T00:13:39;3.63;;;3.33;;
11596;SDS011;5854;48.072;16.286;2023-09-12T00:16:07;3.28;;;3.03;;
11596;SDS011;5854;48.072;16.286;2023-09-12T00:18:36;7.45;;;3.25;;
11596;SDS011;5854;48.072;16.286;2023-09-12T00:21:03;3.33;;;3.10;;
11596;SDS011;5854;48.072;16.286;2023-09-12T00:23:31;4.70;;;3.05;;
11596;SDS011;5854;48.072;16.286;2023-09-12T00:25:58;5.45;;;3.05;;
11596;SDS011;5854;48.072;16.286;2023-09-12T00:28:25;3.67;;;3.40;;
11596;SDS011;5854;48.072;16.286;2023-09-12T00:30:53;3.63;;;3.30;;
11596;SDS011;5854;48.072;16.286;2023-09-12T00:33:20;4.90;;;3.20;;
11596;SDS011;5854;48.072;16.286;2023-09-12T00:35:47;2.95;;;2.75;;
11596;SDS011;5854;48.072;16.286;2023-09-12T00:38:14;3.92;;;3.10;;
11596;SDS011;5854;48.072;16.286;2023-09-12T00:40:43;3.78;;;3.40;;
11596;SDS011;5854;48.072;16.286;2023-09-12T00:43:10;3.90;;;3.50;;
11596;SDS011;5854;48.072;16.286;2023-09-12T00:45:37;3.45;;;3.15;;
11596;SDS011;5854;48.072;16.286;2023-09-12T00:48:05;4.07;;;3.72;;
11596;SDS011;5854;48.072;16.286;2023-09-12T00:50:34;4.80;;;3.35;;
11596;SDS011;5854;48.072;16.286;2023-09-12T00:53:02;3.97;;;3.70;;
11596;SDS011;5854;48.072;16.286;2023-09-12T00:55:31;3.45;;;3.15;;
11596;SDS011;5854;48.072;16.286;2023-09-12T00:58:01;3.42;;;3.13;;
11596;SDS011;5854;48.072;16.286;2023-09-12T01:00:29;3.80;;;3.33;;
11596;SDS011;5854;48.072;16.286;2023-09-12T01:02:57;3.13;;;2.90;;
11596;SDS011;5854;48.072;16.286;2023-09-12T01:05:25;3.60;;;3.40;;
11596;SDS011;5854;48.072;16.286;2023-09-12T01:07:54;4.20;;;3.45;;
11596;SDS011;5854;48.072;16.286;2023-09-12T01:10:22;4.18;;;3.22;;
11596;SDS011;5854;48.072;16.286;2023-09-12T01:12:49;3.72;;;2.90;;
11596;SDS011;5854;48.072;16.286;2023-09-12T01:15:18;3.50;;;3.20;;
11596;SDS011;5854;48.072;16.286;2023-09-12T01:17:45;3.53;;;3.33;;
11596;SDS011;5854;48.072;16.286;2023-09-12T01:20:14;4.00;;;3.30;;
11596;SDS011;5854;48.072;16.286;2023-09-12T01:22:52;5.30;;;3.33;;
11596;SDS011;5854;48.072;16.286;2023-09-12T01:28:51;3.45;;;3.15;;
11596;SDS011;5854;48.072;16.286;2023-09-12T01:31:21;3.58;;;3.28;;
11596;SDS011;5854;48.072;16.286;2023-09-12T01:33:54;3.95;;;3.65;;
11596;SDS011;5854;48.072;16.286;2023-09-12T01:36:22;4.50;;;3.58;;
11596;SDS011;5854;48.072;16.286;2023-09-12T01:38:49;6.93;;;3.97;;
11596;SDS011;5854;48.072;16.286;2023-09-12T01:41:16;3.72;;;3.00;;
11596;SDS011;5854;48.072;16.286;2023-09-12T01:43:44;3.78;;;3.28;;
11596;SDS011;5854;48.072;16.286;2023-09-12T01:46:15;5.10;;;3.60;;
11596;SDS011;5854;48.072;16.286;2023-09-12T01:48:43;3.53;;;3.22;;
11596;SDS011;5854;48.072;16.286;2023-09-12T01:51:12;7.38;;;4.00;;
11596;SDS011;5854;48.072;16.286;2023-09-12T01:53:40;4.47;;;4.18;;
11596;SDS011;5854;48.072;16.286;2023-09-12T01:56:09;3.40;;;3.10;;
11596;SDS011;5854;48.072;16.286;2023-09-12T01:58:37;5.53;;;3.65;;
11596;SDS011;5854;48.072;16.286;2023-09-12T02:01:04;4.25;;;3.25;;
11596;SDS011;5854;48.072;16.286;2023-09-12T02:03:32;7.25;;;3.80;;
11596;SDS011;5854;48.072;16.286;2023-09-12T02:06:00;3.60;;;3.40;;
11596;SDS011;5854;48.072;16.286;2023-09-12T02:08:27;4.40;;;4.00;;
11596;SDS011;5854;48.072;16.286;2023-09-12T02:10:54;3.83;;;3.28;;
11596;SDS011;5854;48.072;16.286;2023-09-12T02:13:21;3.83;;;3.45;;
11596;SDS011;5854;48.072;16.286;2023-09-12T02:15:48;4.18;;;3.88;;
11596;SDS011;5854;48.072;16.286;2023-09-12T02:18:15;4.60;;;3.72;;
11596;SDS011;5854;48.072;16.286;2023-09-12T02:20:44;4.88;;;3.78;;
11596;SDS011;5854;48.072;16.286;2023-09-12T02:23:13;3.67;;;3.38;;
11596;SDS011;5854;48.072;16.286;2023-09-12T02:25:40;4.15;;;3.85;;
11596;SDS011;5854;48.072;16.286;2023-09-12T02:28:07;4.50;;;4.03;;
11596;SDS011;5854;48.072;16.286;2023-09-12T02:30:37;4.18;;;3.78;;
11596;SDS011;5854;48.072;16.286;2023-09-12T02:33:05;4.63;;;4.28;;
11596;SDS011;5854;48.072;16.286;2023-09-12T02:35:33;4.20;;;3.90;;
11596;SDS011;5854;48.072;16.286;2023-09-12T02:38:01;7.95;;;3.50;;
11596;SDS011;5854;48.072;16.286;2023-09-12T02:40:28;3.47;;;3.28;;
11596;SDS011;5854;48.072;16.286;2023-09-12T02:42:55;8.15;;;4.80;;
11596;SDS011;5854;48.072;16.286;2023-09-12T02:45:22;3.92;;;3.53;;
11596;SDS011;5854;48.072;16.286;2023-09-12T02:47:50;5.28;;;4.13;;
11596;SDS011;5854;48.072;16.286;2023-09-12T02:50:17;5.78;;;4.18;;
11596;SDS011;5854;48.072;16.286;2023-09-12T02:52:44;4.35;;;3.97;;
11596;SDS011;5854;48.072;16.286;2023-09-12T02:55:12;5.82;;;3.88;;
11596;SDS011;5854;48.072;16.286;2023-09-12T02:57:39;4.05;;;3.72;;
11596;SDS011;5854;48.072;16.286;2023-09-12T03:00:07;4.38;;;3.97;;
11596;SDS011;5854;48.072;16.286;2023-09-12T03:02:36;4.00;;;3.70;;
11596;SDS011;5854;48.072;16.286;2023-09-12T03:05:03;6.95;;;4.43;;
11596;SDS011;5854;48.072;16.286;2023-09-12T03:07:31;4.28;;;3.88;;
11596;SDS011;5854;48.072;16.286;2023-09-12T03:09:58;3.72;;;3.28;;
11596;SDS011;5854;48.072;16.286;2023-09-12T03:12:27;4.70;;;4.28;;
11596;SDS011;5854;48.072;16.286;2023-09-12T03:14:54;4.15;;;3.85;;
11596;SDS011;5854;48.072;16.286;2023-09-12T03:17:23;4.50;;;3.80;;
11596;SDS011;5854;48.072;16.286;2023-09-12T03:19:50;4.28;;;3.88;;
11596;SDS011;5854;48.072;16.286;2023-09-12T03:22:17;3.58;;;3.33;;
11596;SDS011;5854;48.072;16.286;2023-09-12T03:24:44;4.18;;;3.63;;
11596;SDS011;5854;48.072;16.286;2023-09-12T03:27:12;5.00;;;4.50;;
11596;SDS011;5854;48.072;16.286;2023-09-12T03:29:40;4.07;;;3.78;;
11596;SDS011;5854;48.072;16.286;2023-09-12T03:32:07;3.97;;;3.65;;
11596;SDS011;5854;48.072;16.286;2023-09-12T03:34:34;4.47;;;4.07;;
11596;SDS011;5854;48.072;16.286;2023-09-12T03:37:01;7.47;;;4.18;;
11596;SDS011;5854;48.072;16.286;2023-09-12T03:39:29;4.38;;;4.07;;
11596;SDS011;5854;48.072;16.286;2023-09-12T03:41:56;4.32;;;3.88;;
11596;SDS011;5854;48.072;16.286;2023-09-12T03:44:23;4.40;;;4.07;;
11596;SDS011;5854;48.072;16.286;2023-09-12T03:46:52;4.57;;;4.20;;
11596;SDS011;5854;48.072;16.286;2023-09-12T03:49:19;3.90;;;3.60;;
11596;SDS011;5854;48.072;16.286;2023-09-12T03:51:46;3.78;;;3.47;;
11596;SDS011;5854;48.072;16.286;2023-09-12T03:54:13;4.05;;;3.75;;
11596;SDS011;5854;48.072;16.286;2023-09-12T03:56:40;5.30;;;4.47;;
11596;SDS011;5854;48.072;16.286;2023-09-12T03:59:07;4.43;;;4.03;;
11596;SDS011;5854;48.072;16.286;2023-09-12T04:01:34;5.20;;;3.95;;
11596;SDS011;5854;48.072;16.286;2023-09-12T04:04:03;3.45;;;3.25;;
11596;SDS011;5854;48.072;16.286;2023-09-12T04:06:30;5.25;;;3.97;;
11596;SDS011;5854;48.072;16.286;2023-09-12T04:08:57;5.82;;;4.25;;
11596;SDS011;5854;48.072;16.286;2023-09-12T04:11:25;5.45;;;4.38;;
11596;SDS011;5854;48.072;16.286;2023-09-12T04:13:52;5.28;;;4.75;;
11596;SDS011;5854;48.072;16.286;2023-09-12T04:16:19;4.25;;;3.95;;
11596;SDS011;5854;48.072;16.286;2023-09-12T04:18:46;4.40;;;4.10;;
11596;SDS011;5854;48.072;16.286;2023-09-12T04:21:14;5.28;;;4.03;;
11596;SDS011;5854;48.072;16.286;2023-09-12T04:23:41;5.18;;;4.68;;
11596;SDS011;5854;48.072;16.286;2023-09-12T04:26:08;4.43;;;4.13;;
11596;SDS011;5854;48.072;16.286;2023-09-12T04:28:35;10.20;;;4.75;;
11596;SDS011;5854;48.072;16.286;2023-09-12T04:31:03;4.43;;;3.78;;
11596;SDS011;5854;48.072;16.286;2023-09-12T04:33:30;7.00;;;4.10;;
11596;SDS011;5854;48.072;16.286;2023-09-12T04:35:57;14.05;;;4.90;;
11596;SDS011;5854;48.072;16.286;2023-09-12T04:38:30;4.65;;;4.25;;
11596;SDS011;5854;48.072;16.286;2023-09-12T04:40:59;5.03;;;4.63;;
11596;SDS011;5854;48.072;16.286;2023-09-12T04:43:30;4.40;;;4.10;;
11596;SDS011;5854;48.072;16.286;2023-09-12T04:45:57;5.07;;;4.57;;
11596;SDS011;5854;48.072;16.286;2023-09-12T04:48:24;5.18;;;4.10;;
11596;SDS011;5854;48.072;16.286;2023-09-12T04:50:51;5.25;;;4.75;;
11596;SDS011;5854;48.072;16.286;2023-09-12T04:53:18;4.82;;;4.43;;
11596;SDS011;5854;48.072;16.286;2023-09-12T04:55:47;4.50;;;4.10;;
11596;SDS011;5854;48.072;16.286;2023-09-12T04:58:14;5.10;;;4.57;;
11596;SDS011;5854;48.072;16.286;2023-09-12T05:00:41;6.10;;;4.38;;
11596;SDS011;5854;48.072;16.286;2023-09-12T05:03:08;5.65;;;4.45;;
11596;SDS011;5854;48.072;16.286;2023-09-12T05:05:35;6.90;;;4.85;;
11596;SDS011;5854;48.072;16.286;2023-09-12T05:08:03;4.78;;;4.30;;
11596;SDS011;5854;48.072;16.286;2023-09-12T05:10:30;5.30;;;4.90;;
11596;SDS011;5854;48.072;16.286;2023-09-12T05:12:59;5.35;;;4.85;;
11596;SDS011;5854;48.072;16.286;2023-09-12T05:15:26;6.03;;;4.78;;
11596;SDS011;5854;48.072;16.286;2023-09-12T05:17:54;6.03;;;4.95;;
11596;SDS011;5854;48.072;16.286;2023-09-12T05:20:21;9.00;;;5.15;;
11596;SDS011;5854;48.072;16.286;2023-09-12T05:22:48;14.30;;;5.63;;
11596;SDS011;5854;48.072;16.286;2023-09-12T05:25:15;5.65;;;5.25;;
11596;SDS011;5854;48.072;16.286;2023-09-12T05:27:42;6.53;;;5.45;;
11596;SDS011;5854;48.072;16.286;2023-09-12T05:30:11;6.00;;;5.50;;
11596;SDS011;5854;48.072;16.286;2023-09-12T05:32:40;8.85;;;6.43;;
11596;SDS011;5854;48.072;16.286;2023-09-12T05:35:07;10.82;;;5.28;;
11596;SDS011;5854;48.072;16.286;2023-09-12T05:37:35;6.90;;;5.78;;
11596;SDS011;5854;48.072;16.286;2023-09-12T05:40:05;7.32;;;6.63;;
11596;SDS011;5854;48.072;16.286;2023-09-12T05:42:36;6.85;;;6.25;;
11596;SDS011;5854;48.072;16.286;2023-09-12T05:45:04;10.98;;;5.90;;
11596;SDS011;5854;48.072;16.286;2023-09-12T05:47:34;6.43;;;5.82;;
11596;SDS011;5854;48.072;16.286;2023-09-12T05:50:01;6.35;;;5.85;;
11596;SDS011;5854;48.072;16.286;2023-09-12T05:52:30;6.28;;;5.68;;
11596;SDS011;5854;48.072;16.286;2023-09-12T05:54:58;6.88;;;6.25;;
11596;SDS011;5854;48.072;16.286;2023-09-12T05:57:25;6.85;;;6.13;;
11596;SDS011;5854;48.072;16.286;2023-09-12T05:59:52;8.25;;;6.07;;
11596;SDS011;5854;48.072;16.286;2023-09-12T06:02:20;6.32;;;5.82;;
11596;SDS011;5854;48.072;16.286;2023-09-12T06:04:49;10.55;;;5.97;;
11596;SDS011;5854;48.072;16.286;2023-09-12T06:07:16;9.07;;;6.40;;
11596;SDS011;5854;48.072;16.286;2023-09-12T06:09:44;8.15;;;6.55;;
11596;SDS011;5854;48.072;16.286;2023-09-12T06:12:12;15.48;;;5.35;;
11596;SDS011;5854;48.072;16.286;2023-09-12T06:14:39;5.95;;;5.50;;
11596;SDS011;5854;48.072;16.286;2023-09-12T06:17:06;5.78;;;5.38;;
11596;SDS011;5854;48.072;16.286;2023-09-12T06:19:33;5.55;;;5.15;;
11596;SDS011;5854;48.072;16.286;2023-09-12T06:22:02;10.73;;;5.53;;
11596;SDS011;5854;48.072;16.286;2023-09-12T06:24:29;5.68;;;5.20;;
11596;SDS011;5854;48.072;16.286;2023-09-12T06:26:56;7.88;;;5.53;;
11596;SDS011;5854;48.072;16.286;2023-09-12T06:29:23;6.43;;;5.80;;
11596;SDS011;5854;48.072;16.286;2023-09-12T06:31:50;5.53;;;5.05;;
11596;SDS011;5854;48.072;16.286;2023-09-12T06:34:18;5.93;;;5.43;;
11596;SDS011;5854;48.072;16.286;2023-09-12T06:36:45;11.38;;;5.68;;
11596;SDS011;5854;48.072;16.286;2023-09-12T06:39:13;7.35;;;5.30;;
11596;SDS011;5854;48.072;16.286;2023-09-12T06:41:40;6.20;;;5.60;;
11596;SDS011;5854;48.072;16.286;2023-09-12T06:44:07;6.30;;;5.70;;
11596;SDS011;5854;48.072;16.286;2023-09-12T06:46:34;7.43;;;5.90;;
11596;SDS011;5854;48.072;16.286;2023-09-12T06:49:02;7.53;;;6.07;;
11596;SDS011;5854;48.072;16.286;2023-09-12T06:51:30;8.23;;;6.57;;
11596;SDS011;5854;48.072;16.286;2023-09-12T06:53:57;12.73;;;6.95;;
11596;SDS011;5854;48.072;16.286;2023-09-12T06:56:26;13.10;;;7.10;;
11596;SDS011;5854;48.072;16.286;2023-09-12T06:58:53;8.52;;;6.85;;
11596;SDS011;5854;48.072;16.286;2023-09-12T07:01:20;7.03;;;5.57;;
11596;SDS011;5854;48.072;16.286;2023-09-12T07:03:47;10.95;;;7.03;;
11596;SDS011;5854;48.072;16.286;2023-09-12T07:06:18;7.32;;;6.63;;
11596;SDS011;5854;48.072;16.286;2023-09-12T07:08:46;13.00;;;7.45;;
11596;SDS011;5854;48.072;16.286;2023-09-12T07:11:13;8.60;;;7.47;;
11596;SDS011;5854;48.072;16.286;2023-09-12T07:13:41;7.53;;;6.75;;
11596;SDS011;5854;48.072;16.286;2023-09-12T07:16:09;9.13;;;7.35;;
11596;SDS011;5854;48.072;16.286;2023-09-12T07:18:37;8.75;;;7.60;;
11596;SDS011;5854;48.072;16.286;2023-09-12T07:21:04;14.63;;;7.40;;
11596;SDS011;5854;48.072;16.286;2023-09-12T07:23:32;10.52;;;7.00;;
11596;SDS011;5854;48.072;16.286;2023-09-12T07:25:59;8.20;;;7.15;;
11596;SDS011;5854;48.072;16.286;2023-09-12T07:28:27;8.32;;;6.85;;
11596;SDS011;5854;48.072;16.286;2023-09-12T07:30:58;7.53;;;6.78;;
11596;SDS011;5854;48.072;16.286;2023-09-12T07:33:25;7.93;;;6.78;;
11596;SDS011;5854;48.072;16.286;2023-09-12T07:35:52;7.63;;;6.93;;
11596;SDS011;5854;48.072;16.286;2023-09-12T07:38:20;11.25;;;7.88;;
11596;SDS011;5854;48.072;16.286;2023-09-12T07:40:47;11.88;;;8.35;;
11596;SDS011;5854;48.072;16.286;2023-09-12T07:43:15;14.25;;;7.65;;
11596;SDS011;5854;48.072;16.286;2023-09-12T07:45:42;8.85;;;7.60;;
11596;SDS011;5854;48.072;16.286;2023-09-12T07:48:10;8.60;;;7.78;;
11596;SDS011;5854;48.072;16.286;2023-09-12T07:50:38;7.43;;;6.80;;
11596;SDS011;5854;48.072;16.286;2023-09-12T07:53:05;8.40;;;7.28;;
11596;SDS011;5854;48.072;16.286;2023-09-12T07:55:35;8.85;;;7.95;;
11596;SDS011;5854;48.072;16.286;2023-09-12T07:58:10;10.25;;;7.93;;
11596;SDS011;5854;48.072;16.286;2023-09-12T08:00:37;8.38;;;7.55;;
11596;SDS011;5854;48.072;16.286;2023-09-12T08:03:04;8.88;;;7.20;;
11596;SDS011;5854;48.072;16.286;2023-09-12T08:05:33;7.53;;;6.82;;
11596;SDS011;5854;48.072;16.286;2023-09-12T08:08:00;18.23;;;8.00;;
11596;SDS011;5854;48.072;16.286;2023-09-12T08:10:27;9.23;;;7.65;;
11596;SDS011;5854;48.072;16.286;2023-09-12T08:12:54;10.55;;;7.53;;
11596;SDS011;5854;48.072;16.286;2023-09-12T08:15:22;18.13;;;7.85;;
11596;SDS011;5854;48.072;16.286;2023-09-12T08:17:49;11.02;;;8.20;;
11596;SDS011;5854;48.072;16.286;2023-09-12T08:20:18;8.85;;;7.97;;
11596;SDS011;5854;48.072;16.286;2023-09-12T08:22:47;9.57;;;8.38;;
11596;SDS011;5854;48.072;16.286;2023-09-12T08:25:14;10.40;;;8.95;;
11596;SDS011;5854;48.072;16.286;2023-09-12T08:27:42;16.20;;;7.72;;
11596;SDS011;5854;48.072;16.286;2023-09-12T08:30:10;10.18;;;8.57;;
11596;SDS011;5854;48.072;16.286;2023-09-12T08:32:38;9.93;;;8.15;;
11596;SDS011;5854;48.072;16.286;2023-09-12T08:35:08;17.48;;;8.25;;
11596;SDS011;5854;48.072;16.286;2023-09-12T08:37:37;12.77;;;8.60;;
11596;SDS011;5854;48.072;16.286;2023-09-12T08:40:08;8.27;;;7.30;;
11596;SDS011;5854;48.072;16.286;2023-09-12T08:42:38;10.30;;;8.47;;
11596;SDS011;5854;48.072;16.286;2023-09-12T08:45:08;7.90;;;7.18;;
11596;SDS011;5854;48.072;16.286;2023-09-12T08:47:40;13.77;;;7.22;;
11596;SDS011;5854;48.072;16.286;2023-09-12T08:50:10;7.40;;;6.78;;
11596;SDS011;5854;48.072;16.286;2023-09-12T08:52:40;11.48;;;7.80;;
11596;SDS011;5854;48.072;16.286;2023-09-12T08:55:09;12.15;;;7.25;;
11596;SDS011;5854;48.072;16.286;2023-09-12T08:57:38;7.32;;;6.68;;
11596;SDS011;5854;48.072;16.286;2023-09-12T09:00:08;12.35;;;7.22;;
11596;SDS011;5854;48.072;16.286;2023-09-12T09:02:38;10.02;;;6.88;;
11596;SDS011;5854;48.072;16.286;2023-09-12T09:05:06;8.63;;;7.75;;
11596;SDS011;5854;48.072;16.286;2023-09-12T09:07:35;9.15;;;6.78;;
11596;SDS011;5854;48.072;16.286;2023-09-12T09:10:04;9.73;;;7.55;;
11596;SDS011;5854;48.072;16.286;2023-09-12T09:12:34;8.70;;;7.90;;
11596;SDS011;5854;48.072;16.286;2023-09-12T09:17:48;8.75;;;7.85;;
11596;SDS011;5854;48.072;16.286;2023-09-12T09:20:23;10.75;;;7.50;;
11596;SDS011;5854;48.072;16.286;2023-09-12T09:22:58;10.80;;;6.78;;
11596;SDS011;5854;48.072;16.286;2023-09-12T09:25:30;7.60;;;6.90;;
11596;SDS011;5854;48.072;16.286;2023-09-12T09:27:59;15.98;;;7.18;;
11596;SDS011;5854;48.072;16.286;2023-09-12T09:30:39;10.18;;;7.43;;
11596;SDS011;5854;48.072;16.286;2023-09-12T09:33:08;7.68;;;6.90;;
11596;SDS011;5854;48.072;16.286;2023-09-12T09:35:37;8.45;;;6.90;;
11596;SDS011;5854;48.072;16.286;2023-09-12T09:38:06;13.02;;;7.10;;
11596;SDS011;5854;48.072;16.286;2023-09-12T09:40:34;7.20;;;6.57;;
11596;SDS011;5854;48.072;16.286;2023-09-12T09:43:03;13.75;;;7.50;;
11596;SDS011;5854;48.072;16.286;2023-09-12T09:45:30;12.02;;;6.57;;
11596;SDS011;5854;48.072;16.286;2023-09-12T09:47:58;7.95;;;7.15;;
11596;SDS011;5854;48.072;16.286;2023-09-12T09:50:33;8.32;;;6.15;;
11596;SDS011;5854;48.072;16.286;2023-09-12T09:53:02;8.20;;;7.40;;
11596;SDS011;5854;48.072;16.286;2023-09-12T09:55:33;11.70;;;7.30;;
11596;SDS011;5854;48.072;16.286;2023-09-12T09:58:00;7.47;;;6.60;;
11596;SDS011;5854;48.072;16.286;2023-09-12T10:00:29;7.63;;;6.82;;
11596;SDS011;5854;48.072;16.286;2023-09-12T10:03:00;7.60;;;6.45;;
11596;SDS011;5854;48.072;16.286;2023-09-12T10:05:31;7.05;;;6.35;;
11596;SDS011;5854;48.072;16.286;2023-09-12T10:07:59;10.13;;;6.22;;
11596;SDS011;5854;48.072;16.286;2023-09-12T10:10:30;6.72;;;6.07;;
11596;SDS011;5854;48.072;16.286;2023-09-12T10:12:59;8.15;;;5.85;;
11596;SDS011;5854;48.072;16.286;2023-09-12T10:15:32;8.15;;;6.47;;
11596;SDS011;5854;48.072;16.286;2023-09-12T10:18:02;8.60;;;6.47;;
11596;SDS011;5854;48.072;16.286;2023-09-12T10:20:37;8.80;;;7.93;;
11596;SDS011;5854;48.072;16.286;2023-09-12T10:23:11;6.88;;;6.05;;
11596;SDS011;5854;48.072;16.286;2023-09-12T10:25:46;6.18;;;5.72;;
11596;SDS011;5854;48.072;16.286;2023-09-12T10:28:17;6.07;;;5.57;;
11596;SDS011;5854;48.072;16.286;2023-09-12T10:30:44;6.70;;;6.15;;
11596;SDS011;5854;48.072;16.286;2023-09-12T10:33:12;9.60;;;6.45;;
11596;SDS011;5854;48.072;16.286;2023-09-12T10:35:42;8.32;;;6.32;;
11596;SDS011;5854;48.072;16.286;2023-09-12T10:38:11;8.00;;;6.43;;
11596;SDS011;5854;48.072;16.286;2023-09-12T10:40:42;11.80;;;6.65;;
11596;SDS011;5854;48.072;16.286;2023-09-12T10:43:12;7.47;;;6.95;;
11596;SDS011;5854;48.072;16.286;2023-09-12T10:45:41;7.07;;;6.38;;
11596;SDS011;5854;48.072;16.286;2023-09-12T10:48:10;6.45;;;5.85;;
11596;SDS011;5854;48.072;16.286;2023-09-12T10:50:38;7.60;;;6.25;;
11596;SDS011;5854;48.072;16.286;2023-09-12T10:53:10;5.60;;;5.15;;
11596;SDS011;5854;48.072;16.286;2023-09-12T10:55:39;7.18;;;5.88;;
11596;SDS011;5854;48.072;16.286;2023-09-12T10:58:07;10.15;;;6.25;;
11596;SDS011;5854;48.072;16.286;2023-09-12T11:00:36;6.72;;;5.97;;
11596;SDS011;5854;48.072;16.286;2023-09-12T11:06:05;8.00;;;5.45;;
11596;SDS011;5854;48.072;16.286;2023-09-12T11:11:43;6.93;;;6.22;;
11596;SDS011;5854;48.072;16.286;2023-09-12T11:14:15;6.75;;;5.93;;
11596;SDS011;5854;48.072;16.286;2023-09-12T11:16:42;6.68;;;5.40;;
11596;SDS011;5854;48.072;16.286;2023-09-12T11:19:50;6.35;;;5.75;;
11596;SDS011;5854;48.072;16.286;2023-09-12T11:22:25;5.50;;;5.03;;
11596;SDS011;5854;48.072;16.286;2023-09-12T11:24:54;6.65;;;5.45;;
11596;SDS011;5854;48.072;16.286;2023-09-12T11:27:22;6.00;;;5.35;;
11596;SDS011;5854;48.072;16.286;2023-09-12T11:29:51;6.60;;;5.00;;
11596;SDS011;5854;48.072;16.286;2023-09-12T11:32:26;10.38;;;5.38;;
11596;SDS011;5854;48.072;16.286;2023-09-12T11:34:58;5.38;;;4.57;;
11596;SDS011;5854;48.072;16.286;2023-09-12T11:37:26;5.72;;;5.22;;
11596;SDS011;5854;48.072;16.286;2023-09-12T11:39:55;5.63;;;5.03;;
11596;SDS011;5854;48.072;16.286;2023-09-12T11:42:23;5.93;;;5.40;;
11596;SDS011;5854;48.072;16.286;2023-09-12T11:44:51;5.93;;;5.32;;
11596;SDS011;5854;48.072;16.286;2023-09-12T11:47:19;7.90;;;4.53;;
11596;SDS011;5854;48.072;16.286;2023-09-12T11:49:46;5.80;;;5.22;;
11596;SDS011;5854;48.072;16.286;2023-09-12T11:52:15;4.82;;;4.43;;
11596;SDS011;5854;48.072;16.286;2023-09-12T11:54:43;8.35;;;5.45;;
11596;SDS011;5854;48.072;16.286;2023-09-12T11:57:12;10.43;;;4.93;;
11596;SDS011;5854;48.072;16.286;2023-09-12T11:59:40;4.72;;;4.32;;
11596;SDS011;5854;48.072;16.286;2023-09-12T12:02:10;4.78;;;4.28;;
11596;SDS011;5854;48.072;16.286;2023-09-12T12:04:37;7.10;;;4.43;;
11596;SDS011;5854;48.072;16.286;2023-09-12T12:07:05;5.05;;;4.65;;
11596;SDS011;5854;48.072;16.286;2023-09-12T12:09:35;9.98;;;4.32;;
11596;SDS011;5854;48.072;16.286;2023-09-12T12:12:09;4.00;;;3.70;;
11596;SDS011;5854;48.072;16.286;2023-09-12T12:14:38;4.53;;;4.15;;
11596;SDS011;5854;48.072;16.286;2023-09-12T12:17:07;6.70;;;4.20;;
11596;SDS011;5854;48.072;16.286;2023-09-12T12:19:35;4.90;;;3.95;;
11596;SDS011;5854;48.072;16.286;2023-09-12T12:22:03;5.57;;;3.88;;
11596;SDS011;5854;48.072;16.286;2023-09-12T12:24:38;5.50;;;4.23;;
11596;SDS011;5854;48.072;16.286;2023-09-12T12:27:07;4.47;;;4.07;;
11596;SDS011;5854;48.072;16.286;2023-09-12T12:29:37;4.43;;;3.88;;
11596;SDS011;5854;48.072;16.286;2023-09-12T12:32:08;4.43;;;4.03;;
11596;SDS011;5854;48.072;16.286;2023-09-12T12:34:37;4.35;;;4.05;;
11596;SDS011;5854;48.072;16.286;2023-09-12T12:37:04;6.10;;;4.22;;
11596;SDS011;5854;48.072;16.286;2023-09-12T12:39:31;4.50;;;4.20;;
11596;SDS011;5854;48.072;16.286;2023-09-12T12:42:00;5.43;;;3.97;;
11596;SDS011;5854;48.072;16.286;2023-09-12T12:44:34;4.68;;;4.22;;
11596;SDS011;5854;48.072;16.286;2023-09-12T12:47:05;4.60;;;4.20;;
11596;SDS011;5854;48.072;16.286;2023-09-12T12:49:37;6.20;;;4.03;;
11596;SDS011;5854;48.072;16.286;2023-09-12T12:52:05;6.47;;;3.90;;
11596;SDS011;5854;48.072;16.286;2023-09-12T12:54:35;7.03;;;3.28;;
11596;SDS011;5854;48.072;16.286;2023-09-12T13:56:20;5.18;;;3.78;;
11596;SDS011;5854;48.072;16.286;2023-09-12T13:58:47;6.20;;;3.58;;
11596;SDS011;5854;48.072;16.286;2023-09-12T14:01:15;8.77;;;3.63;;
11596;SDS011;5854;48.072;16.286;2023-09-12T14:03:48;8.13;;;4.50;;
11596;SDS011;5854;48.072;16.286;2023-09-12T14:06:21;6.82;;;3.58;;
11596;SDS011;5854;48.072;16.286;2023-09-12T14:09:17;8.85;;;4.78;;
11596;SDS011;5854;48.072;16.286;2023-09-12T14:11:46;7.75;;;4.32;;
11596;SDS011;5854;48.072;16.286;2023-09-12T14:14:13;4.00;;;3.63;;
11596;SDS011;5854;48.072;16.286;2023-09-12T14:16:42;6.43;;;3.92;;
11596;SDS011;5854;48.072;16.286;2023-09-12T14:19:09;6.28;;;4.30;;
11596;SDS011;5854;48.072;16.286;2023-09-12T14:21:36;4.22;;;3.45;;
11596;SDS011;5854;48.072;16.286;2023-09-12T14:24:04;4.30;;;3.90;;
11596;SDS011;5854;48.072;16.286;2023-09-12T14:31:46;4.53;;;3.97;;
11596;SDS011;5854;48.072;16.286;2023-09-12T15:05:53;5.18;;;4.68;;
11596;SDS011;5854;48.072;16.286;2023-09-12T15:13:32;4.70;;;4.40;;
11596;SDS011;5854;48.072;16.286;2023-09-12T15:15:59;7.03;;;4.55;;
11596;SDS011;5854;48.072;16.286;2023-09-12T15:20:59;4.47;;;4.07;;
11596;SDS011;5854;48.072;16.286;2023-09-12T15:23:26;6.43;;;4.15;;
11596;SDS011;5854;48.072;16.286;2023-09-12T15:30:57;4.28;;;3.92;;
11596;SDS011;5854;48.072;16.286;2023-09-12T15:33:27;4.82;;;4.43;;
11596;SDS011;5854;48.072;16.286;2023-09-12T15:38:49;9.68;;;4.97;;
11596;SDS011;5854;48.072;16.286;2023-09-12T15:41:32;5.03;;;4.63;;
11596;SDS011;5854;48.072;16.286;2023-09-12T15:43:59;10.13;;;5.15;;
11596;SDS011;5854;48.072;16.286;2023-09-12T15:46:28;5.28;;;4.78;;
11596;SDS011;5854;48.072;16.286;2023-09-12T15:48:55;10.65;;;5.47;;
11596;SDS011;5854;48.072;16.286;2023-09-12T15:51:23;4.65;;;4.10;;
11596;SDS011;5854;48.072;16.286;2023-09-12T15:53:52;6.60;;;4.75;;
11596;SDS011;5854;48.072;16.286;2023-09-12T15:56:19;5.45;;;5.05;;
11596;SDS011;5854;48.072;16.286;2023-09-12T15:58:48;5.00;;;4.47;;
11596;SDS011;5854;48.072;16.286;2023-09-12T16:03:49;5.38;;;4.88;;
11596;SDS011;5854;48.072;16.286;2023-09-12T16:06:18;5.70;;;4.60;;
11596;SDS011;5854;48.072;16.286;2023-09-12T16:08:45;6.47;;;5.30;;
11596;SDS011;5854;48.072;16.286;2023-09-12T16:21:31;5.93;;;5.20;;
11596;SDS011;5854;48.072;16.286;2023-09-12T16:23:58;5.63;;;4.82;;
11596;SDS011;5854;48.072;16.286;2023-09-12T16:26:25;5.10;;;4.60;;
11596;SDS011;5854;48.072;16.286;2023-09-12T16:28:52;5.18;;;4.78;;
11596;SDS011;5854;48.072;16.286;2023-09-12T16:31:20;9.73;;;5.03;;
11596;SDS011;5854;48.072;16.286;2023-09-12T16:33:54;5.45;;;4.72;;
11596;SDS011;5854;48.072;16.286;2023-09-12T16:36:21;5.20;;;4.80;;
11596;SDS011;5854;48.072;16.286;2023-09-12T16:38:51;5.10;;;4.50;;
11596;SDS011;5854;48.072;16.286;2023-09-12T16:41:23;4.60;;;4.20;;
11596;SDS011;5854;48.072;16.286;2023-09-12T16:43:51;4.20;;;3.90;;
11596;SDS011;5854;48.072;16.286;2023-09-12T16:46:18;5.32;;;3.72;;
11596;SDS011;5854;48.072;16.286;2023-09-12T16:48:45;4.35;;;3.95;;
11596;SDS011;5854;48.072;16.286;2023-09-12T16:51:12;3.97;;;3.67;;
11596;SDS011;5854;48.072;16.286;2023-09-12T16:53:39;3.97;;;3.78;;
11596;SDS011;5854;48.072;16.286;2023-09-12T16:56:08;4.30;;;4.00;;
11596;SDS011;5854;48.072;16.286;2023-09-12T16:58:35;4.50;;;4.20;;
11596;SDS011;5854;48.072;16.286;2023-09-12T17:01:02;4.85;;;4.45;;
11596;SDS011;5854;48.072;16.286;2023-09-12T17:03:29;4.90;;;4.50;;
11596;SDS011;5854;48.072;16.286;2023-09-12T17:05:56;7.82;;;3.92;;
11596;SDS011;5854;48.072;16.286;2023-09-12T17:08:25;5.32;;;4.07;;
11596;SDS011;5854;48.072;16.286;2023-09-12T17:10:52;4.85;;;3.95;;